• Join FlightAware (Why Join?)
  • Login
  • US Flag 
02:53AM EST


 

Airport Tracker/Info


-or-


 

Live Flight TrackerFlight Track Log ✈ NKS562 ✈ 02-May-2013 ✈ KLAS - KDEN

Flight Track Log - Related Links

Times and Time Zones

All times are in EDT time to prevent confusion due to time zone crossing. See the NKS562 flight status page for this flight to view local times or setup timezone preferences in your user account.

Time Position Orientation Groundspeed Altitude Reporting Facility
EDT Latitude Longitude Course Direction KTS MPH feet Rate Location/Type
11:20AM 36.0760 -115.1080 91° East 156 180 3,300  Level FlightAware
11:21AM 36.0760 -115.0780 90° East 192 221 4,300 1,800 Climbing FlightAware
11:21AM 36.0760 -115.0490 90° East 235 270 5,000 2,040 Climbing FlightAware
11:22AM 36.0760 -115.0070 90° East 258 297 6,200 1,500 Climbing FlightAware
11:22AM 36.0750 -114.9600 91° East 268 308 6,500 720 Climbing FlightAware
11:23AM 36.0790 -114.9210 83° East 266 306 6,900 2,820 Climbing FlightAware
11:23AM 36.0860 -114.8760 79° East 268 308 9,100 4,080 Climbing FlightAware
11:23AM 36.0900 -114.8560 76° East 270 311 10,000 2,580 Climbing FlightAware
11:24AM 36.1020 -114.7900 77° East 319 367 11,500 2,460 Climbing FlightAware
11:25AM 36.1140 -114.7150 79° East 343 395 13,300 2,880 Climbing FlightAware
11:25AM 36.1290 -114.6290 78° East 357 411 15,600 2,940 Climbing FlightAware
11:26AM 36.1440 -114.5420 78° East 371 427 17,500 2,520 Climbing FlightAware
11:27AM 36.1600 -114.4480 78° East 393 452 19,200 2,400 Climbing FlightAware
11:28AM 36.1750 -114.3580 78° East 405 466 20,900 2,460 Climbing FlightAware
11:28AM 36.1900 -114.2660 79° East 412 474 22,500 1,440 Climbing FlightAware
11:29AM 36.2060 -114.1580 80° East 419 482 23,000 300 Climbing FlightAware
11:30AM 36.2160 -114.0630 83° East 420 483 23,000  Level FlightAware
11:30AM 36.2280 -113.9580 82° East 419 482 23,000 840 Level FlightAware
11:31AM 36.2390 -113.8650 82° East 424 488 24,200 1,860 Climbing FlightAware
11:32AM 36.2510 -113.7650 82° East 435 501 25,500 1,800 Climbing FlightAware
11:32AM 36.2640 -113.6510 82° East 450 518 26,800 1,860 Climbing FlightAware
11:33AM 36.2760 -113.5470 82° East 451 519 28,200 1,800 Climbing FlightAware
11:34AM 36.2880 -113.4390 82° East 458 527 29,400 1,440 Climbing FlightAware
11:35AM 36.3010 -113.3290 82° East 471 542 30,300 1,320 Climbing FlightAware
11:35AM 36.3140 -113.2240 81° East 473 544 31,200 1,500 Climbing FlightAware
11:36AM 36.3550 -113.1110 66° East 466 536 32,500 1,740 Climbing FlightAware
11:37AM 36.3900 -113.0170 65° Northeast 465 535 33,700 1,860 Climbing FlightAware
11:37AM 36.4260 -112.9180 66° East 460 529 35,000 1,620 Climbing FlightAware
11:38AM 36.4660 -112.8100 65° Northeast 461 531 36,000 1,380 Climbing FlightAware
11:39AM 36.5020 -112.7130 65° Northeast 460 529 37,000 660 Climbing FlightAware
11:39AM 36.5420 -112.6050 65° Northeast 464 534 37,000  Level FlightAware
11:40AM 36.5780 -112.5050 66° East 460 529 37,000  Level FlightAware
11:41AM 36.6170 -112.4000 65° Northeast 460 529 37,000  Level FlightAware
11:42AM 36.6510 -112.3060 66° East 460 529 37,000  Level FlightAware
11:42AM 36.6810 -112.2240 65° Northeast 459 528 37,000  Level FlightAware
11:43AM 36.7190 -112.1220 65° Northeast 459 528 37,000  Level FlightAware
11:44AM 36.7500 -112.0400 65° Northeast 459 528 37,000  Level FlightAware
11:44AM 36.7800 -111.9590 65° Northeast 459 528 37,000  Level FlightAware
11:45AM 36.8110 -111.8770 65° Northeast 459 528 37,000  Level FlightAware
11:46AM 36.8490 -111.7750 65° Northeast 459 528 37,000  Level FlightAware
11:46AM 36.8790 -111.6930 65° Northeast 459 528 37,000  Level FlightAware
11:47AM 36.9100 -111.6110 65° Northeast 459 528 37,000  Level FlightAware
11:48AM 36.9400 -111.5290 65° Northeast 459 528 37,000  Level FlightAware
11:48AM 36.9710 -111.4470 65° Northeast 459 528 37,000  Level FlightAware
11:49AM 37.0010 -111.3650 65° Northeast 459 528 37,000  Level FlightAware
11:50AM 37.0390 -111.2630 65° Northeast 459 528 37,000  Level FlightAware
11:51AM 37.0700 -111.1810 65° Northeast 459 528 37,000  Level FlightAware
11:51AM 37.1000 -111.0990 65° Northeast 459 528 37,000  Level FlightAware
11:52AM 37.1936 -110.7700 65° Northeast 451 519 37,000  Level Denver Center
11:53AM 37.2444 -110.6247 66° East 455 524 37,000  Level Denver Center
11:54AM 37.2939 -110.4783 67° East 457 526 37,000  Level Denver Center
11:55AM 37.3536 -110.3031 67° East 456 525 37,000  Level Denver Center
11:56AM 37.4061 -110.1481 67° East 454 522 37,000  Level Denver Center
11:58AM 37.4542 -110.0097 66° East 449 517 37,000  Level Denver Center
11:59AM 37.4997 -109.8708 68° East 448 516 37,000  Level Denver Center
12:00PM 37.5542 -109.7083 67° East 450 518 37,000  Level Denver Center
12:01PM 37.6000 -109.5703 67° East 447 514 37,000 -540 Level Denver Center
12:02PM 37.6533 -109.4072 68° East 449 517 35,900 -1,020 Descending Denver Center
12:03PM 37.6992 -109.2683 67° East 447 514 35,000 -480 Descending Denver Center
12:04PM 37.7514 -109.1064 68° East 447 514 35,000  Level Denver Center
12:05PM 37.7958 -108.9719 67° East 437 503 35,000  Level Denver Center
12:06PM 37.8619 -108.8239 60° Northeast 432 497 35,000  Level Denver Center
12:07PM 37.9211 -108.7028 58° Northeast 424 488 35,000 -360 Level Denver Center
12:08PM 37.9886 -108.5583 59° Northeast 426 490 34,300 -300 Descending Denver Center
12:14PM 38.3620 -107.7860 59° Northeast 416 479 33,000 -240 Descending FlightAware
12:15PM 38.4010 -107.7030 59° Northeast 417 480 33,000  Level FlightAware
12:15PM 38.4400 -107.6200 59° Northeast 420 483 33,000  Level FlightAware
12:16PM 38.4740 -107.5470 59° Northeast 422 486 33,000  Level FlightAware
12:17PM 38.5210 -107.4410 60° Northeast 421 484 33,000  Level FlightAware
12:18PM 38.5610 -107.3510 60° Northeast 420 483 33,000  Level FlightAware
12:18PM 38.6020 -107.2610 60° Northeast 422 486 33,000  Level FlightAware
12:19PM 38.6480 -107.1580 60° Northeast 422 486 33,000  Level FlightAware
12:20PM 38.6850 -107.0740 61° Northeast 423 487 33,000  Level FlightAware
12:20PM 38.7220 -106.9900 61° Northeast 424 488 33,000  Level FlightAware
12:21PM 38.7610 -106.9030 60° Northeast 424 488 33,000  Level FlightAware
12:22PM 38.8080 -106.7950 61° Northeast 426 490 33,000  Level FlightAware
12:22PM 38.8266 -106.7550 59° Northeast 426 490 33,000  Level FlightAware ADS-B
12:23PM 38.8583 -106.6870 59° Northeast 424 488 33,000  Level FlightAware ADS-B
12:23PM 38.8920 -106.6130 60° Northeast 422 486 33,000  Level FlightAware
12:24PM 38.9287 -106.5320 60° Northeast 423 487 33,000  Level FlightAware ADS-B
12:24PM 38.9660 -106.4490 60° Northeast 422 486 33,000  Level FlightAware ADS-B
12:25PM 39.0060 -106.3610 60° Northeast 421 484 33,000 -120 Level FlightAware
12:25PM 39.0261 -106.3160 60° Northeast 421 484 32,900 -840 Descending FlightAware ADS-B
12:26PM 39.0553 -106.2500 60° Northeast 424 488 32,400 -1,620 Descending FlightAware ADS-B
12:26PM 39.0855 -106.1820 60° Northeast 421 484 31,300 -1,860 Descending FlightAware ADS-B
12:27PM 39.1151 -106.1160 60° Northeast 419 482 30,500 -2,220 Descending FlightAware ADS-B
12:27PM 39.1447 -106.0500 60° Northeast 419 482 29,100 -2,760 Descending FlightAware ADS-B
12:28PM 39.1739 -105.9850 60° Northeast 415 478 27,700 -2,460 Descending FlightAware ADS-B
12:28PM 39.2070 -105.9100 60° Northeast 403 464 26,400 -2,220 Descending FlightAware ADS-B
12:29PM 39.2346 -105.8480 60° Northeast 388 447 25,300 -2,100 Descending FlightAware ADS-B
12:30PM 39.2608 -105.7890 60° Northeast 376 433 24,300 -1,980 Descending FlightAware ADS-B
12:30PM 39.2869 -105.7290 61° Northeast 363 418 23,300 -2,100 Descending FlightAware ADS-B
12:31PM 39.3117 -105.6730 60° Northeast 356 410 22,200 -2,280 Descending FlightAware ADS-B
12:31PM 39.3366 -105.6170 60° Northeast 352 405 21,000 -2,400 Descending FlightAware ADS-B
12:32PM 39.3608 -105.5620 60° Northeast 348 400 19,800 -1,800 Descending FlightAware ADS-B
12:32PM 39.3845 -105.5070 61° Northeast 333 383 19,200 -1,140 Descending FlightAware ADS-B
12:32PM 39.3932 -105.4850 63° Northeast 330 380 19,000 -1,140 Descending FlightAware ADS-B
12:32PM 39.3949 -105.4780 73° East 333 383 18,900 -1,500 Descending FlightAware ADS-B
12:32PM 39.3965 -105.4680 78° East 337 388 18,800 -1,200 Descending FlightAware ADS-B
12:33PM 39.3994 -105.4080 86° East 332 382 18,200 -1,500 Descending FlightAware ADS-B
12:33PM 39.4016 -105.3490 87° East 327 376 17,300 -1,920 Descending FlightAware ADS-B
12:34PM 39.4040 -105.2890 87° East 327 376 16,300 -1,680 Descending FlightAware ADS-B
12:34PM 39.4065 -105.2310 87° East 318 366 15,600 -1,380 Descending FlightAware ADS-B
12:35PM 39.4091 -105.1740 87° East 314 361 14,900 -1,380 Descending FlightAware ADS-B
12:36PM 39.4123 -105.1050 87° East 306 352 14,100 -1,260 Descending FlightAware ADS-B
12:36PM 39.4148 -105.0480 87° East 301 346 13,500 -1,200 Descending FlightAware ADS-B
12:37PM 39.4172 -104.9940 87° East 299 344 12,900 -1,260 Descending FlightAware ADS-B
12:37PM 39.4196 -104.9430 86° East 302 348 12,300 -1,260 Descending FlightAware ADS-B
12:38PM 39.4244 -104.8880 84° East 297 342 11,700 -1,200 Descending FlightAware ADS-B
12:38PM 39.4296 -104.8350 83° East 290 334 11,100 -1,140 Descending FlightAware ADS-B
12:38PM 39.4357 -104.8150 68° East 284 327 10,900 -1,440 Descending FlightAware ADS-B
12:39PM 39.4465 -104.8000 47° Northeast 281 323 10,500 -1,620 Descending FlightAware ADS-B
12:39PM 39.4586 -104.7900 33° Northeast 278 320 10,300 -1,560 Descending FlightAware ADS-B
12:39PM 39.4761 -104.7770 30° Northeast 278 320 9,800 -1,680 Descending FlightAware ADS-B
12:39PM 39.4944 -104.7630 31° Northeast 278 320 9,400 -960 Descending FlightAware ADS-B
12:40PM 39.5129 -104.7500 28° Northeast 275 316 9,300 -180 Descending FlightAware ADS-B
12:40PM 39.5334 -104.7340 31° Northeast 254 292 9,300  Level FlightAware ADS-B
12:40PM 39.5493 -104.7220 30° Northeast 241 277 9,300 -360 Level FlightAware ADS-B
12:40PM 39.5671 -104.7090 29° Northeast 234 269 9,100 -900 Descending FlightAware ADS-B
12:41PM 39.5813 -104.6980 31° Northeast 237 273 8,800 -1,200 Descending FlightAware ADS-B
12:41PM 39.5958 -104.6860 33° Northeast 237 273 8,500 -720 Descending FlightAware ADS-B
12:41PM 39.6125 -104.6730 31° Northeast 233 268 8,400 -480 Descending FlightAware ADS-B
12:41PM 39.6196 -104.6680 28° Northeast 234 269 8,300 -360 Descending FlightAware ADS-B
12:42PM 39.6298 -104.6650 13° North 233 268 8,300  Level FlightAware ADS-B
12:42PM 39.6460 -104.6630 North 233 268 8,300 -240 Level FlightAware ADS-B
12:42PM 39.6593 -104.6620 North 217 250 8,200 -840 Descending FlightAware ADS-B
12:42PM 39.6745 -104.6620 360° North 214 246 7,900 -1,200 Descending FlightAware ADS-B
12:43PM 39.6892 -104.6620 360° North 211 243 7,600 -1,200 Descending FlightAware ADS-B
12:43PM 39.7037 -104.6620 360° North 200 230 7,300 -1,380 Descending FlightAware ADS-B
12:43PM 39.7181 -104.6620 360° North 195 224 6,900 -1,080 Descending FlightAware ADS-B
12:43PM 39.7346 -104.6620 360° North 193 222 6,700 -720 Descending FlightAware ADS-B
12:43PM 39.7419 -104.6620 360° North 192 221 6,600 -960 Descending FlightAware ADS-B
12:44PM 39.7569 -104.6610 North 182 209 6,300 -1,140 Descending FlightAware ADS-B
12:44PM 39.7692 -104.6610 360° North 165 190 6,000 -1,320 Descending FlightAware ADS-B
12:44PM 39.7752 -104.6610 360° North 158 182 5,800 -960 Descending FlightAware ADS-B
12:44PM 39.7826 -104.6610 360° North 146 168 5,700 -600 Descending FlightAware ADS-B
12:45PM 39.7897 -104.6610 360° North 138 159 5,600 -840 Descending FlightAware ADS-B
12:45PM 39.7963 -104.6610 360° North 136 157 5,400 -1,020 Descending FlightAware ADS-B
12:45PM 39.8007 -104.6610 360° North 135 155 5,300 -780 Descending FlightAware ADS-B
12:45PM 39.8062 -104.6610 360° North 132 152 5,200 -420 Descending FlightAware ADS-B
12:45PM 39.8107 -104.6610 360° North 134 154 5,200 -540 Level FlightAware ADS-B
12:45PM 39.8141 -104.6610 360° North 137 158 5,100 -900 Descending FlightAware ADS-B
12:45PM 39.8193 -104.6610 360° North 133 153 5,000 -780 Descending FlightAware ADS-B
12:46PM 39.8286 -104.6610 360° North 131 151 4,800 -840 Descending FlightAware ADS-B